sensor_id;sensor_type;location;lat;lon;timestamp;temperature;humidity
11656;DHT22;5884;43.618;1.438;2023-04-24T04:47:02;10.80;99.90
11656;DHT22;5884;43.618;1.438;2023-04-24T04:49:31;10.70;99.90
11656;DHT22;5884;43.618;1.438;2023-04-24T04:51:58;10.80;99.90
11656;DHT22;5884;43.618;1.438;2023-04-24T04:54:25;10.80;99.90
11656;DHT22;5884;43.618;1.438;2023-04-24T04:56:52;10.80;99.90
11656;DHT22;5884;43.618;1.438;2023-04-24T04:59:20;10.90;99.90
11656;DHT22;5884;43.618;1.438;2023-04-24T05:01:47;10.90;99.90
11656;DHT22;5884;43.618;1.438;2023-04-24T05:04:16;11.00;99.90
11656;DHT22;5884;43.618;1.438;2023-04-24T05:06:43;11.10;99.90
11656;DHT22;5884;43.618;1.438;2023-04-24T05:09:12;11.20;99.90
11656;DHT22;5884;43.618;1.438;2023-04-24T05:11:39;11.20;99.90
11656;DHT22;5884;43.618;1.438;2023-04-24T05:14:07;11.20;99.90
11656;DHT22;5884;43.618;1.438;2023-04-24T05:16:34;11.20;99.90
11656;DHT22;5884;43.618;1.438;2023-04-24T05:19:02;11.30;99.90
11656;DHT22;5884;43.618;1.438;2023-04-24T05:21:31;11.30;99.90
11656;DHT22;5884;43.618;1.438;2023-04-24T05:23:58;11.30;99.90
11656;DHT22;5884;43.618;1.438;2023-04-24T05:26:25;11.40;99.90
11656;DHT22;5884;43.618;1.438;2023-04-24T05:28:52;11.50;99.90
11656;DHT22;5884;43.618;1.438;2023-04-24T05:31:19;11.50;99.90
11656;DHT22;5884;43.618;1.438;2023-04-24T05:33:47;11.60;99.90
11656;DHT22;5884;43.618;1.438;2023-04-24T05:36:14;11.70;99.90
11656;DHT22;5884;43.618;1.438;2023-04-24T05:38:43;11.70;99.90
11656;DHT22;5884;43.618;1.438;2023-04-24T05:41:10;11.80;99.90
11656;DHT22;5884;43.618;1.438;2023-04-24T05:43:37;11.90;99.90
11656;DHT22;5884;43.618;1.438;2023-04-24T05:46:04;12.00;99.90
11656;DHT22;5884;43.618;1.438;2023-04-24T05:48:31;12.00;99.90
11656;DHT22;5884;43.618;1.438;2023-04-24T05:50:59;12.10;99.90
11656;DHT22;5884;43.618;1.438;2023-04-24T05:53:26;12.10;99.90
11656;DHT22;5884;43.618;1.438;2023-04-24T05:55:54;12.10;99.90
11656;DHT22;5884;43.618;1.438;2023-04-24T05:58:22;12.20;99.90
11656;DHT22;5884;43.618;1.438;2023-04-24T06:00:49;12.30;99.90
11656;DHT22;5884;43.618;1.438;2023-04-24T06:03:16;12.30;99.90
11656;DHT22;5884;43.618;1.438;2023-04-24T06:05:43;12.30;99.90
11656;DHT22;5884;43.618;1.438;2023-04-24T06:08:11;12.40;99.90
11656;DHT22;5884;43.618;1.438;2023-04-24T06:10:38;12.30;99.90
11656;DHT22;5884;43.618;1.438;2023-04-24T06:13:07;12.30;99.90
11656;DHT22;5884;43.618;1.438;2023-04-24T06:15:34;12.20;99.90
11656;DHT22;5884;43.618;1.438;2023-04-24T06:18:01;12.20;99.90
11656;DHT22;5884;43.618;1.438;2023-04-24T06:20:29;12.20;99.90
11656;DHT22;5884;43.618;1.438;2023-04-24T06:22:56;12.30;99.90
11656;DHT22;5884;43.618;1.438;2023-04-24T06:25:25;12.40;99.90
11656;DHT22;5884;43.618;1.438;2023-04-24T06:27:53;12.40;99.90
11656;DHT22;5884;43.618;1.438;2023-04-24T06:30:22;12.40;99.90
11656;DHT22;5884;43.618;1.438;2023-04-24T06:32:49;12.30;99.90
11656;DHT22;5884;43.618;1.438;2023-04-24T06:35:17;12.30;99.90
11656;DHT22;5884;43.618;1.438;2023-04-24T06:37:44;12.30;99.90
11656;DHT22;5884;43.618;1.438;2023-04-24T06:40:11;12.30;99.90
11656;DHT22;5884;43.618;1.438;2023-04-24T06:42:38;12.40;99.90
11656;DHT22;5884;43.618;1.438;2023-04-24T06:45:06;12.40;99.90
11656;DHT22;5884;43.618;1.438;2023-04-24T06:47:35;12.50;99.90
11656;DHT22;5884;43.618;1.438;2023-04-24T06:50:04;12.50;99.90
11656;DHT22;5884;43.618;1.438;2023-04-24T06:52:32;12.50;99.90
11656;DHT22;5884;43.618;1.438;2023-04-24T06:55:00;12.50;99.90
11656;DHT22;5884;43.618;1.438;2023-04-24T06:57:28;12.50;99.90
11656;DHT22;5884;43.618;1.438;2023-04-24T06:59:55;12.60;99.90
11656;DHT22;5884;43.618;1.438;2023-04-24T07:02:22;12.60;99.90
11656;DHT22;5884;43.618;1.438;2023-04-24T07:04:51;12.60;99.90
11656;DHT22;5884;43.618;1.438;2023-04-24T07:07:18;12.60;99.90
11656;DHT22;5884;43.618;1.438;2023-04-24T07:09:46;12.60;99.90
11656;DHT22;5884;43.618;1.438;2023-04-24T07:12:14;12.70;99.90
11656;DHT22;5884;43.618;1.438;2023-04-24T07:14:42;12.70;99.90
11656;DHT22;5884;43.618;1.438;2023-04-24T07:17:09;12.70;99.90
11656;DHT22;5884;43.618;1.438;2023-04-24T07:19:38;12.60;99.90
11656;DHT22;5884;43.618;1.438;2023-04-24T07:22:07;12.60;99.90
11656;DHT22;5884;43.618;1.438;2023-04-24T07:24:37;12.50;99.90
11656;DHT22;5884;43.618;1.438;2023-04-24T07:27:04;12.50;99.90
11656;DHT22;5884;43.618;1.438;2023-04-24T07:29:31;12.40;99.90
11656;DHT22;5884;43.618;1.438;2023-04-24T07:31:58;12.50;99.90
11656;DHT22;5884;43.618;1.438;2023-04-24T07:34:26;12.50;99.90
11656;DHT22;5884;43.618;1.438;2023-04-24T07:36:53;12.70;99.90
11656;DHT22;5884;43.618;1.438;2023-04-24T07:39:22;12.90;99.90
11656;DHT22;5884;43.618;1.438;2023-04-24T07:41:50;13.20;99.90
11656;DHT22;5884;43.618;1.438;2023-04-24T07:44:17;13.40;99.90
11656;DHT22;5884;43.618;1.438;2023-04-24T07:46:44;13.50;99.90
11656;DHT22;5884;43.618;1.438;2023-04-24T07:49:11;13.40;99.90
11656;DHT22;5884;43.618;1.438;2023-04-24T07:51:39;13.30;99.90
11656;DHT22;5884;43.618;1.438;2023-04-24T07:54:07;13.20;99.90
11656;DHT22;5884;43.618;1.438;2023-04-24T07:56:35;13.50;99.90
11656;DHT22;5884;43.618;1.438;2023-04-24T07:59:04;14.10;99.90
11656;DHT22;5884;43.618;1.438;2023-04-24T08:01:33;14.60;99.90
11656;DHT22;5884;43.618;1.438;2023-04-24T08:04:00;14.70;99.90
11656;DHT22;5884;43.618;1.438;2023-04-24T08:06:28;14.40;99.90
11656;DHT22;5884;43.618;1.438;2023-04-24T08:08:55;14.10;99.90
11656;DHT22;5884;43.618;1.438;2023-04-24T08:11:24;14.00;99.90
11656;DHT22;5884;43.618;1.438;2023-04-24T08:13:52;14.10;99.90
11656;DHT22;5884;43.618;1.438;2023-04-24T08:16:20;14.00;99.90
11656;DHT22;5884;43.618;1.438;2023-04-24T08:18:49;14.20;99.90
11656;DHT22;5884;43.618;1.438;2023-04-24T08:21:16;14.30;99.90
11656;DHT22;5884;43.618;1.438;2023-04-24T08:23:44;14.20;99.90
11656;DHT22;5884;43.618;1.438;2023-04-24T08:26:12;14.30;99.90
11656;DHT22;5884;43.618;1.438;2023-04-24T08:28:39;14.50;99.90
11656;DHT22;5884;43.618;1.438;2023-04-24T08:31:08;14.50;99.90
11656;DHT22;5884;43.618;1.438;2023-04-24T08:33:35;14.70;99.90
11656;DHT22;5884;43.618;1.438;2023-04-24T08:36:03;14.80;99.90
11656;DHT22;5884;43.618;1.438;2023-04-24T08:38:31;14.70;99.90
11656;DHT22;5884;43.618;1.438;2023-04-24T08:41:00;14.50;99.90
11656;DHT22;5884;43.618;1.438;2023-04-24T08:43:28;14.30;99.90
11656;DHT22;5884;43.618;1.438;2023-04-24T08:45:56;14.70;99.90
11656;DHT22;5884;43.618;1.438;2023-04-24T08:48:26;15.30;99.90
11656;DHT22;5884;43.618;1.438;2023-04-24T08:50:55;15.90;99.90
11656;DHT22;5884;43.618;1.438;2023-04-24T08:53:24;15.70;99.90
11656;DHT22;5884;43.618;1.438;2023-04-24T08:55:54;15.50;99.90
11656;DHT22;5884;43.618;1.438;2023-04-24T08:58:24;15.20;99.90
11656;DHT22;5884;43.618;1.438;2023-04-24T09:00:53;15.10;99.90
11656;DHT22;5884;43.618;1.438;2023-04-24T09:03:21;15.40;99.90
11656;DHT22;5884;43.618;1.438;2023-04-24T09:05:51;15.70;99.90
11656;DHT22;5884;43.618;1.438;2023-04-24T09:08:20;15.80;99.90
11656;DHT22;5884;43.618;1.438;2023-04-24T09:10:51;15.70;99.90
11656;DHT22;5884;43.618;1.438;2023-04-24T09:13:19;15.40;99.90
11656;DHT22;5884;43.618;1.438;2023-04-24T09:15:46;15.10;99.90
11656;DHT22;5884;43.618;1.438;2023-04-24T09:18:14;14.60;99.90
11656;DHT22;5884;43.618;1.438;2023-04-24T09:21:03;14.70;99.90
11656;DHT22;5884;43.618;1.438;2023-04-24T09:23:31;15.10;99.90
11656;DHT22;5884;43.618;1.438;2023-04-24T09:26:01;15.10;99.90
11656;DHT22;5884;43.618;1.438;2023-04-24T09:28:32;15.30;99.90
11656;DHT22;5884;43.618;1.438;2023-04-24T09:31:06;15.30;99.90
11656;DHT22;5884;43.618;1.438;2023-04-24T09:33:34;15.20;99.90
11656;DHT22;5884;43.618;1.438;2023-04-24T09:36:03;15.30;99.90
11656;DHT22;5884;43.618;1.438;2023-04-24T09:38:35;15.40;99.90
11656;DHT22;5884;43.618;1.438;2023-04-24T09:41:06;15.60;99.90
11656;DHT22;5884;43.618;1.438;2023-04-24T09:43:35;15.80;99.90
11656;DHT22;5884;43.618;1.438;2023-04-24T09:46:06;16.00;99.90
11656;DHT22;5884;43.618;1.438;2023-04-24T09:48:36;16.10;99.90
11656;DHT22;5884;43.618;1.438;2023-04-24T09:51:06;16.20;99.90
11656;DHT22;5884;43.618;1.438;2023-04-24T09:53:36;16.50;99.90
11656;DHT22;5884;43.618;1.438;2023-04-24T09:56:08;16.90;99.90
11656;DHT22;5884;43.618;1.438;2023-04-24T09:58:38;17.10;99.90
11656;DHT22;5884;43.618;1.438;2023-04-24T10:01:05;17.10;99.90
11656;DHT22;5884;43.618;1.438;2023-04-24T10:03:33;16.50;99.90
11656;DHT22;5884;43.618;1.438;2023-04-24T10:06:03;16.30;99.90
11656;DHT22;5884;43.618;1.438;2023-04-24T10:08:34;16.00;99.90
11656;DHT22;5884;43.618;1.438;2023-04-24T10:11:03;15.70;99.90
11656;DHT22;5884;43.618;1.438;2023-04-24T10:13:31;16.10;99.90
11656;DHT22;5884;43.618;1.438;2023-04-24T10:16:00;16.30;99.90
11656;DHT22;5884;43.618;1.438;2023-04-24T10:18:28;16.50;99.90
11656;DHT22;5884;43.618;1.438;2023-04-24T10:21:00;16.40;99.90
11656;DHT22;5884;43.618;1.438;2023-04-24T10:23:30;16.90;99.90
11656;DHT22;5884;43.618;1.438;2023-04-24T10:25:58;17.20;99.90
11656;DHT22;5884;43.618;1.438;2023-04-24T10:28:28;17.00;99.90
11656;DHT22;5884;43.618;1.438;2023-04-24T10:30:57;17.40;99.90
11656;DHT22;5884;43.618;1.438;2023-04-24T10:33:24;17.80;99.90
11656;DHT22;5884;43.618;1.438;2023-04-24T10:35:53;18.10;99.90
11656;DHT22;5884;43.618;1.438;2023-04-24T10:38:24;18.30;99.90
11656;DHT22;5884;43.618;1.438;2023-04-24T10:40:57;18.70;99.90
11656;DHT22;5884;43.618;1.438;2023-04-24T10:43:34;18.50;99.90
11656;DHT22;5884;43.618;1.438;2023-04-24T10:46:02;18.20;99.90
11656;DHT22;5884;43.618;1.438;2023-04-24T10:48:30;18.10;99.90
11656;DHT22;5884;43.618;1.438;2023-04-24T10:50:58;17.80;99.90
11656;DHT22;5884;43.618;1.438;2023-04-24T10:53:28;17.60;99.90
11656;DHT22;5884;43.618;1.438;2023-04-24T10:56:03;17.10;99.90
11656;DHT22;5884;43.618;1.438;2023-04-24T10:58:41;16.80;99.90
11656;DHT22;5884;43.618;1.438;2023-04-24T11:01:23;16.60;99.90
11656;DHT22;5884;43.618;1.438;2023-04-24T11:03:54;16.70;99.90
11656;DHT22;5884;43.618;1.438;2023-04-24T11:06:29;16.90;99.90
11656;DHT22;5884;43.618;1.438;2023-04-24T11:09:02;17.00;99.90
11656;DHT22;5884;43.618;1.438;2023-04-24T11:11:33;17.10;99.90
11656;DHT22;5884;43.618;1.438;2023-04-24T11:14:08;17.50;99.90
11656;DHT22;5884;43.618;1.438;2023-04-24T11:16:43;17.10;99.90
11656;DHT22;5884;43.618;1.438;2023-04-24T11:19:21;16.90;99.90
11656;DHT22;5884;43.618;1.438;2023-04-24T11:21:55;16.60;99.90
11656;DHT22;5884;43.618;1.438;2023-04-24T11:24:27;16.60;99.90
11656;DHT22;5884;43.618;1.438;2023-04-24T11:26:59;16.50;99.90
11656;DHT22;5884;43.618;1.438;2023-04-24T11:29:39;16.40;99.90
11656;DHT22;5884;43.618;1.438;2023-04-24T11:32:19;16.30;99.90
11656;DHT22;5884;43.618;1.438;2023-04-24T11:34:54;16.30;99.90
11656;DHT22;5884;43.618;1.438;2023-04-24T11:37:23;16.20;99.90
11656;DHT22;5884;43.618;1.438;2023-04-24T11:39:52;16.30;99.90
11656;DHT22;5884;43.618;1.438;2023-04-24T11:42:21;16.70;99.90
11656;DHT22;5884;43.618;1.438;2023-04-24T11:44:49;16.90;99.90
11656;DHT22;5884;43.618;1.438;2023-04-24T11:47:19;17.00;99.90
11656;DHT22;5884;43.618;1.438;2023-04-24T11:49:46;17.10;99.90
11656;DHT22;5884;43.618;1.438;2023-04-24T11:52:15;17.00;99.90
11656;DHT22;5884;43.618;1.438;2023-04-24T11:54:48;17.10;99.90
11656;DHT22;5884;43.618;1.438;2023-04-24T11:57:16;17.10;99.90
11656;DHT22;5884;43.618;1.438;2023-04-24T11:59:48;17.20;99.90
11656;DHT22;5884;43.618;1.438;2023-04-24T12:02:22;17.00;99.90
11656;DHT22;5884;43.618;1.438;2023-04-24T12:04:50;17.10;99.90
11656;DHT22;5884;43.618;1.438;2023-04-24T12:07:18;17.50;99.90
11656;DHT22;5884;43.618;1.438;2023-04-24T12:09:48;17.90;99.90
11656;DHT22;5884;43.618;1.438;2023-04-24T12:12:17;18.30;99.90
11656;DHT22;5884;43.618;1.438;2023-04-24T12:14:47;18.30;99.90
11656;DHT22;5884;43.618;1.438;2023-04-24T12:17:15;18.00;99.90
11656;DHT22;5884;43.618;1.438;2023-04-24T12:19:46;17.80;99.90
11656;DHT22;5884;43.618;1.438;2023-04-24T12:22:14;17.50;99.90
11656;DHT22;5884;43.618;1.438;2023-04-24T12:25:00;17.20;99.90
11656;DHT22;5884;43.618;1.438;2023-04-24T12:27:30;16.90;99.90
11656;DHT22;5884;43.618;1.438;2023-04-24T12:30:04;17.10;99.90
11656;DHT22;5884;43.618;1.438;2023-04-24T12:32:32;17.40;99.90
11656;DHT22;5884;43.618;1.438;2023-04-24T12:34:59;17.80;99.90
11656;DHT22;5884;43.618;1.438;2023-04-24T12:37:33;17.70;99.90
11656;DHT22;5884;43.618;1.438;2023-04-24T12:40:04;18.10;99.90
11656;DHT22;5884;43.618;1.438;2023-04-24T12:42:34;17.70;99.90
11656;DHT22;5884;43.618;1.438;2023-04-24T12:45:04;17.60;99.90
11656;DHT22;5884;43.618;1.438;2023-04-24T12:47:34;17.80;99.90
11656;DHT22;5884;43.618;1.438;2023-04-24T12:50:02;17.70;99.90
11656;DHT22;5884;43.618;1.438;2023-04-24T12:52:30;17.70;99.90
11656;DHT22;5884;43.618;1.438;2023-04-24T12:54:59;18.20;99.90
11656;DHT22;5884;43.618;1.438;2023-04-24T12:57:28;18.40;99.90
11656;DHT22;5884;43.618;1.438;2023-04-24T12:59:57;18.40;99.90
11656;DHT22;5884;43.618;1.438;2023-04-24T13:02:28;18.70;99.90
11656;DHT22;5884;43.618;1.438;2023-04-24T13:04:57;18.60;99.90
11656;DHT22;5884;43.618;1.438;2023-04-24T13:07:24;18.80;99.90
11656;DHT22;5884;43.618;1.438;2023-04-24T13:09:52;18.10;99.90
11656;DHT22;5884;43.618;1.438;2023-04-24T13:12:20;18.00;99.90
11656;DHT22;5884;43.618;1.438;2023-04-24T13:14:49;18.10;99.90
11656;DHT22;5884;43.618;1.438;2023-04-24T13:17:16;18.10;99.90
11656;DHT22;5884;43.618;1.438;2023-04-24T13:19:45;18.20;99.90
11656;DHT22;5884;43.618;1.438;2023-04-24T13:22:12;18.30;99.90
11656;DHT22;5884;43.618;1.438;2023-04-24T13:24:40;18.00;99.90
11656;DHT22;5884;43.618;1.438;2023-04-24T13:27:07;18.10;99.90
11656;DHT22;5884;43.618;1.438;2023-04-24T13:29:35;18.10;99.90
11656;DHT22;5884;43.618;1.438;2023-04-24T13:32:02;18.40;99.90
11656;DHT22;5884;43.618;1.438;2023-04-24T13:34:30;18.50;99.90
11656;DHT22;5884;43.618;1.438;2023-04-24T13:36:58;18.50;99.90
11656;DHT22;5884;43.618;1.438;2023-04-24T13:39:26;18.60;99.90
11656;DHT22;5884;43.618;1.438;2023-04-24T13:41:55;18.80;99.90
11656;DHT22;5884;43.618;1.438;2023-04-24T13:44:22;19.00;99.90
11656;DHT22;5884;43.618;1.438;2023-04-24T13:46:51;18.80;99.90
11656;DHT22;5884;43.618;1.438;2023-04-24T13:49:22;18.40;99.90
11656;DHT22;5884;43.618;1.438;2023-04-24T13:51:51;18.10;99.90
11656;DHT22;5884;43.618;1.438;2023-04-24T13:54:20;18.00;99.90
11656;DHT22;5884;43.618;1.438;2023-04-24T13:56:49;18.10;99.90
11656;DHT22;5884;43.618;1.438;2023-04-24T13:59:16;18.10;99.90
11656;DHT22;5884;43.618;1.438;2023-04-24T14:01:43;18.40;99.90
11656;DHT22;5884;43.618;1.438;2023-04-24T14:04:11;18.40;99.90
11656;DHT22;5884;43.618;1.438;2023-04-24T14:06:38;18.40;99.90
11656;DHT22;5884;43.618;1.438;2023-04-24T14:09:06;18.20;99.90
11656;DHT22;5884;43.618;1.438;2023-04-24T14:11:35;18.10;99.90
11656;DHT22;5884;43.618;1.438;2023-04-24T14:14:02;18.10;99.90
11656;DHT22;5884;43.618;1.438;2023-04-24T14:16:30;18.50;99.90
11656;DHT22;5884;43.618;1.438;2023-04-24T14:18:57;18.80;99.90
11656;DHT22;5884;43.618;1.438;2023-04-24T14:21:24;18.90;99.90
11656;DHT22;5884;43.618;1.438;2023-04-24T14:23:51;18.80;99.90
11656;DHT22;5884;43.618;1.438;2023-04-24T14:26:19;18.80;99.90
11656;DHT22;5884;43.618;1.438;2023-04-24T14:28:48;18.60;99.90
11656;DHT22;5884;43.618;1.438;2023-04-24T14:31:16;18.70;99.90
11656;DHT22;5884;43.618;1.438;2023-04-24T14:33:43;18.50;99.90
11656;DHT22;5884;43.618;1.438;2023-04-24T14:36:11;18.20;99.90
11656;DHT22;5884;43.618;1.438;2023-04-24T14:38:38;18.10;99.90
11656;DHT22;5884;43.618;1.438;2023-04-24T14:41:05;18.00;99.90
11656;DHT22;5884;43.618;1.438;2023-04-24T14:43:35;18.20;99.90
11656;DHT22;5884;43.618;1.438;2023-04-24T14:46:06;18.20;99.90
11656;DHT22;5884;43.618;1.438;2023-04-24T14:48:33;18.00;99.90
11656;DHT22;5884;43.618;1.438;2023-04-24T14:51:00;18.10;99.90
11656;DHT22;5884;43.618;1.438;2023-04-24T14:53:27;18.00;99.90
11656;DHT22;5884;43.618;1.438;2023-04-24T14:55:55;18.30;99.90
11656;DHT22;5884;43.618;1.438;2023-04-24T14:58:22;18.30;99.90
11656;DHT22;5884;43.618;1.438;2023-04-24T15:00:49;18.30;99.90
11656;DHT22;5884;43.618;1.438;2023-04-24T15:03:21;18.30;99.90
11656;DHT22;5884;43.618;1.438;2023-04-24T15:05:48;18.30;99.90
11656;DHT22;5884;43.618;1.438;2023-04-24T15:08:16;18.10;99.90
11656;DHT22;5884;43.618;1.438;2023-04-24T15:10:44;18.10;99.90
11656;DHT22;5884;43.618;1.438;2023-04-24T15:13:11;18.00;99.90
11656;DHT22;5884;43.618;1.438;2023-04-24T15:15:38;18.20;99.90
11656;DHT22;5884;43.618;1.438;2023-04-24T15:18:07;18.30;99.90
11656;DHT22;5884;43.618;1.438;2023-04-24T15:20:37;18.30;99.90
11656;DHT22;5884;43.618;1.438;2023-04-24T15:23:07;18.30;99.90
11656;DHT22;5884;43.618;1.438;2023-04-24T15:25:35;18.30;99.90
11656;DHT22;5884;43.618;1.438;2023-04-24T15:28:02;18.40;99.90
11656;DHT22;5884;43.618;1.438;2023-04-24T15:30:30;18.50;99.90
11656;DHT22;5884;43.618;1.438;2023-04-24T15:32:57;18.60;99.90
11656;DHT22;5884;43.618;1.438;2023-04-24T15:35:26;19.00;99.90
11656;DHT22;5884;43.618;1.438;2023-04-24T15:37:54;19.00;99.90
11656;DHT22;5884;43.618;1.438;2023-04-24T15:40:22;19.20;99.90
11656;DHT22;5884;43.618;1.438;2023-04-24T15:42:49;19.00;99.90
11656;DHT22;5884;43.618;1.438;2023-04-24T15:45:16;18.90;99.90
11656;DHT22;5884;43.618;1.438;2023-04-24T15:47:44;18.70;99.90
11656;DHT22;5884;43.618;1.438;2023-04-24T15:50:12;18.70;99.90
11656;DHT22;5884;43.618;1.438;2023-04-24T15:52:41;18.50;99.90
11656;DHT22;5884;43.618;1.438;2023-04-24T15:55:11;18.40;99.90
11656;DHT22;5884;43.618;1.438;2023-04-24T15:57:38;18.30;99.90
11656;DHT22;5884;43.618;1.438;2023-04-24T16:00:06;18.30;99.90
11656;DHT22;5884;43.618;1.438;2023-04-24T16:02:35;18.00;99.90
11656;DHT22;5884;43.618;1.438;2023-04-24T16:05:02;17.80;99.90
11656;DHT22;5884;43.618;1.438;2023-04-24T16:07:32;17.70;99.90
11656;DHT22;5884;43.618;1.438;2023-04-24T16:10:00;17.80;99.90
11656;DHT22;5884;43.618;1.438;2023-04-24T16:12:28;17.80;99.90
11656;DHT22;5884;43.618;1.438;2023-04-24T16:14:56;17.70;99.90
11656;DHT22;5884;43.618;1.438;2023-04-24T16:17:23;17.70;99.90
11656;DHT22;5884;43.618;1.438;2023-04-24T16:19:50;17.60;99.90
11656;DHT22;5884;43.618;1.438;2023-04-24T16:22:18;17.60;99.90
11656;DHT22;5884;43.618;1.438;2023-04-24T16:24:45;17.40;99.90
11656;DHT22;5884;43.618;1.438;2023-04-24T16:27:13;17.50;99.90
11656;DHT22;5884;43.618;1.438;2023-04-24T16:29:42;17.60;99.90
11656;DHT22;5884;43.618;1.438;2023-04-24T16:32:09;17.60;99.90
11656;DHT22;5884;43.618;1.438;2023-04-24T16:34:36;17.50;99.90
11656;DHT22;5884;43.618;1.438;2023-04-24T16:37:04;17.30;99.90
11656;DHT22;5884;43.618;1.438;2023-04-24T16:39:31;17.30;99.90
11656;DHT22;5884;43.618;1.438;2023-04-24T16:41:59;17.30;99.90
11656;DHT22;5884;43.618;1.438;2023-04-24T16:44:26;17.20;99.90
11656;DHT22;5884;43.618;1.438;2023-04-24T16:46:55;17.20;99.90
11656;DHT22;5884;43.618;1.438;2023-04-24T16:49:22;17.30;99.90
11656;DHT22;5884;43.618;1.438;2023-04-24T16:51:49;17.40;99.90
11656;DHT22;5884;43.618;1.438;2023-04-24T16:54:16;17.30;99.90
11656;DHT22;5884;43.618;1.438;2023-04-24T16:56:44;17.20;99.90
11656;DHT22;5884;43.618;1.438;2023-04-24T16:59:11;17.20;99.90
11656;DHT22;5884;43.618;1.438;2023-04-24T17:01:38;17.10;99.90
11656;DHT22;5884;43.618;1.438;2023-04-24T17:04:07;17.10;99.90
11656;DHT22;5884;43.618;1.438;2023-04-24T17:06:34;17.10;99.90
11656;DHT22;5884;43.618;1.438;2023-04-24T17:09:02;17.10;99.90
11656;DHT22;5884;43.618;1.438;2023-04-24T17:11:29;17.00;99.90
11656;DHT22;5884;43.618;1.438;2023-04-24T17:13:56;17.00;99.90
11656;DHT22;5884;43.618;1.438;2023-04-24T17:16:24;17.00;99.90
11656;DHT22;5884;43.618;1.438;2023-04-24T17:18:52;17.00;99.90
11656;DHT22;5884;43.618;1.438;2023-04-24T17:21:21;17.00;99.90
11656;DHT22;5884;43.618;1.438;2023-04-24T17:23:48;16.90;99.90
11656;DHT22;5884;43.618;1.438;2023-04-24T17:26:15;16.90;99.90
11656;DHT22;5884;43.618;1.438;2023-04-24T17:28:42;16.90;99.90
11656;DHT22;5884;43.618;1.438;2023-04-24T17:31:10;16.80;99.90
11656;DHT22;5884;43.618;1.438;2023-04-24T17:33:37;16.70;99.90
11656;DHT22;5884;43.618;1.438;2023-04-24T17:36:05;16.70;99.90
11656;DHT22;5884;43.618;1.438;2023-04-24T17:38:34;16.70;99.90
11656;DHT22;5884;43.618;1.438;2023-04-24T17:41:01;16.70;99.90
11656;DHT22;5884;43.618;1.438;2023-04-24T17:43:28;16.70;99.90
11656;DHT22;5884;43.618;1.438;2023-04-24T17:45:56;16.70;99.90
11656;DHT22;5884;43.618;1.438;2023-04-24T17:48:24;16.60;99.90
11656;DHT22;5884;43.618;1.438;2023-04-24T17:50:51;16.60;99.90
11656;DHT22;5884;43.618;1.438;2023-04-24T17:53:19;16.60;99.90
11656;DHT22;5884;43.618;1.438;2023-04-24T17:55:48;16.60;99.90
11656;DHT22;5884;43.618;1.438;2023-04-24T17:58:16;16.60;99.90
11656;DHT22;5884;43.618;1.438;2023-04-24T18:00:43;16.60;99.90
11656;DHT22;5884;43.618;1.438;2023-04-24T18:03:10;16.60;99.90
11656;DHT22;5884;43.618;1.438;2023-04-24T18:05:38;16.60;99.90
11656;DHT22;5884;43.618;1.438;2023-04-24T18:08:05;16.60;99.90
11656;DHT22;5884;43.618;1.438;2023-04-24T18:10:34;16.50;99.90
11656;DHT22;5884;43.618;1.438;2023-04-24T18:13:04;16.50;99.90
11656;DHT22;5884;43.618;1.438;2023-04-24T18:15:31;16.40;99.90
11656;DHT22;5884;43.618;1.438;2023-04-24T18:18:00;16.40;99.90
11656;DHT22;5884;43.618;1.438;2023-04-24T18:20:27;16.40;99.90
11656;DHT22;5884;43.618;1.438;2023-04-24T18:22:54;16.30;99.90
11656;DHT22;5884;43.618;1.438;2023-04-24T18:25:21;16.30;99.90
11656;DHT22;5884;43.618;1.438;2023-04-24T18:27:51;16.30;99.90
11656;DHT22;5884;43.618;1.438;2023-04-24T18:30:21;16.20;99.90
11656;DHT22;5884;43.618;1.438;2023-04-24T18:32:49;16.20;99.90
11656;DHT22;5884;43.618;1.438;2023-04-24T18:35:17;16.20;99.90
11656;DHT22;5884;43.618;1.438;2023-04-24T18:37:45;16.20;99.90
11656;DHT22;5884;43.618;1.438;2023-04-24T18:40:12;16.10;99.90
11656;DHT22;5884;43.618;1.438;2023-04-24T18:42:40;16.10;99.90
11656;DHT22;5884;43.618;1.438;2023-04-24T18:45:08;16.10;99.90
11656;DHT22;5884;43.618;1.438;2023-04-24T18:47:38;16.10;99.90
11656;DHT22;5884;43.618;1.438;2023-04-24T18:50:06;16.00;99.90
11656;DHT22;5884;43.618;1.438;2023-04-24T18:52:34;16.00;99.90
11656;DHT22;5884;43.618;1.438;2023-04-24T18:55:02;16.00;99.90
11656;DHT22;5884;43.618;1.438;2023-04-24T18:57:31;16.00;99.90
11656;DHT22;5884;43.618;1.438;2023-04-24T18:59:58;15.90;99.90
11656;DHT22;5884;43.618;1.438;2023-04-24T19:02:26;15.90;99.90
11656;DHT22;5884;43.618;1.438;2023-04-24T19:04:54;15.90;99.90
11656;DHT22;5884;43.618;1.438;2023-04-24T19:07:21;15.90;99.90
11656;DHT22;5884;43.618;1.438;2023-04-24T19:09:49;15.90;99.90
11656;DHT22;5884;43.618;1.438;2023-04-24T19:12:16;15.90;99.90
11656;DHT22;5884;43.618;1.438;2023-04-24T19:14:45;15.80;99.90
11656;DHT22;5884;43.618;1.438;2023-04-24T19:17:12;15.80;99.90
11656;DHT22;5884;43.618;1.438;2023-04-24T19:19:42;15.80;99.90
11656;DHT22;5884;43.618;1.438;2023-04-24T19:22:11;15.80;99.90
11656;DHT22;5884;43.618;1.438;2023-04-24T19:24:38;15.80;99.90
11656;DHT22;5884;43.618;1.438;2023-04-24T19:27:06;15.70;99.90
11656;DHT22;5884;43.618;1.438;2023-04-24T19:29:33;15.70;99.90
11656;DHT22;5884;43.618;1.438;2023-04-24T19:32:01;15.80;99.90
11656;DHT22;5884;43.618;1.438;2023-04-24T19:34:28;15.70;99.90
11656;DHT22;5884;43.618;1.438;2023-04-24T19:36:56;15.70;99.90
11656;DHT22;5884;43.618;1.438;2023-04-24T19:39:25;15.70;99.90
11656;DHT22;5884;43.618;1.438;2023-04-24T19:41:52;15.70;99.90
11656;DHT22;5884;43.618;1.438;2023-04-24T19:44:21;15.70;99.90
11656;DHT22;5884;43.618;1.438;2023-04-24T19:46:49;15.60;99.90
11656;DHT22;5884;43.618;1.438;2023-04-24T19:49:17;15.50;99.90
11656;DHT22;5884;43.618;1.438;2023-04-24T19:51:44;15.50;99.90
11656;DHT22;5884;43.618;1.438;2023-04-24T19:54:12;15.50;99.90
11656;DHT22;5884;43.618;1.438;2023-04-24T19:56:41;15.30;99.90
11656;DHT22;5884;43.618;1.438;2023-04-24T19:59:08;15.30;99.90
11656;DHT22;5884;43.618;1.438;2023-04-24T20:01:35;15.20;99.90
11656;DHT22;5884;43.618;1.438;2023-04-24T20:04:04;15.10;99.90
11656;DHT22;5884;43.618;1.438;2023-04-24T20:06:32;15.00;99.90
11656;DHT22;5884;43.618;1.438;2023-04-24T20:08:59;14.90;99.90
11656;DHT22;5884;43.618;1.438;2023-04-24T20:11:27;14.90;99.90
11656;DHT22;5884;43.618;1.438;2023-04-24T20:13:55;14.80;99.90
11656;DHT22;5884;43.618;1.438;2023-04-24T20:16:23;14.80;99.90
11656;DHT22;5884;43.618;1.438;2023-04-24T20:18:50;14.70;99.90
11656;DHT22;5884;43.618;1.438;2023-04-24T20:21:17;14.70;99.90
11656;DHT22;5884;43.618;1.438;2023-04-24T20:23:44;14.70;99.90
11656;DHT22;5884;43.618;1.438;2023-04-24T20:26:11;14.60;99.90
11656;DHT22;5884;43.618;1.438;2023-04-24T20:28:39;14.70;99.90
11656;DHT22;5884;43.618;1.438;2023-04-24T20:31:07;14.60;99.90
11656;DHT22;5884;43.618;1.438;2023-04-24T20:33:35;14.60;99.90
11656;DHT22;5884;43.618;1.438;2023-04-24T20:36:06;14.60;99.90
11656;DHT22;5884;43.618;1.438;2023-04-24T20:38:34;14.60;99.90